Time;durP1;ratioP1;P1;durP2;ratioP2;P2;SDS_P1;SDS_P2;PMS_P1;PMS_P2;Temp;Humidity;BMP_temperature;BMP_pressure;BME280_temperature;BME280_humidity;BME280_pressure;Samples;Min_cycle;Max_cycle;Signal;HPM_P1;HPM_P2
2021/12/03 00:01:09;;;;;;;2.05;1.25;;;;;;;2.26;100.00;99822.53;4974886;28;20143;-67
2021/12/03 00:03:36;;;;;;;2.83;0.70;;;;;;;2.26;100.00;99829.72;4984364;28;20097;-67
2021/12/03 00:06:02;;;;;;;2.83;1.05;;;;;;;2.29;100.00;99834.38;4990254;28;20034;-66
2021/12/03 00:08:28;;;;;;;1.67;1.13;;;;;;;2.24;100.00;99823.94;4990300;28;20108;-68
2021/12/03 00:10:57;;;;;;;1.80;1.10;;;;;;;2.33;100.00;99814.81;4990302;28;20046;-67
2021/12/03 00:13:24;;;;;;;1.25;1.02;;;;;;;2.26;100.00;99822.53;4990231;28;20041;-66
2021/12/03 00:15:51;;;;;;;1.25;1.02;;;;;;;2.24;100.00;99831.91;4987823;28;20042;-67
2021/12/03 00:18:16;;;;;;;0.65;0.65;;;;;;;2.29;100.00;99813.91;4982454;28;20038;-67
2021/12/03 00:20:42;;;;;;;1.50;1.20;;;;;;;2.27;100.00;99824.06;4990711;28;20038;-67
2021/12/03 00:23:08;;;;;;;0.80;0.75;;;;;;;2.26;100.00;99817.22;4988555;28;20128;-69
2021/12/03 00:25:35;;;;;;;3.10;1.52;;;;;;;2.32;100.00;99813.25;4989958;28;20038;-66
2021/12/03 00:28:01;;;;;;;2.40;1.60;;;;;;;2.42;100.00;99820.09;4990554;28;20042;-67
2021/12/03 00:30:27;;;;;;;1.27;0.85;;;;;;;2.47;100.00;99812.72;4986460;28;20062;-66
2021/12/03 00:32:53;;;;;;;1.20;1.10;;;;;;;2.41;100.00;99821.19;4981186;28;20068;-66
2021/12/03 00:35:19;;;;;;;1.95;1.15;;;;;;;2.41;100.00;99807.91;4988100;28;20117;-66
2021/12/03 00:37:46;;;;;;;2.80;1.15;;;;;;;2.37;100.00;99818.41;4989710;28;20522;-66
2021/12/03 00:40:14;;;;;;;2.88;1.38;;;;;;;2.46;100.00;99807.72;4989383;28;20073;-66
2021/12/03 00:42:40;;;;;;;1.55;1.00;;;;;;;2.36;100.00;99816.81;4974766;28;20113;-66
2021/12/03 00:45:09;;;;;;;4.43;1.45;;;;;;;2.41;100.00;99810.56;4989297;28;20038;-67
2021/12/03 00:47:36;;;;;;;1.00;1.00;;;;;;;2.34;100.00;99810.31;4989191;28;20045;-66
2021/12/03 00:50:03;;;;;;;1.88;1.55;;;;;;;2.32;100.00;99815.16;4976671;28;20034;-66
2021/12/03 00:52:29;;;;;;;6.15;1.70;;;;;;;2.41;100.00;99823.84;4986197;28;20042;-66
2021/12/03 00:54:54;;;;;;;2.00;0.90;;;;;;;2.43;100.00;99816.34;4992140;28;20053;-67
2021/12/03 00:57:20;;;;;;;1.08;0.85;;;;;;;2.34;100.00;99819.03;4993202;28;20044;-66
2021/12/03 00:59:45;;;;;;;1.42;1.23;;;;;;;2.32;100.00;99831.84;4983451;28;20038;-67
2021/12/03 01:02:11;;;;;;;7.25;1.27;;;;;;;2.26;100.00;99843.00;4983304;28;20042;-67
2021/12/03 01:04:36;;;;;;;1.52;1.00;;;;;;;2.36;100.00;99847.94;4975611;28;20451;-69
2021/12/03 01:07:02;;;;;;;1.65;1.08;;;;;;;2.38;100.00;99856.38;4992671;28;20065;-66
2021/12/03 01:09:28;;;;;;;0.93;0.65;;;;;;;2.39;100.00;99844.63;4974503;28;20073;-66
2021/12/03 01:11:53;;;;;;;3.53;0.88;;;;;;;2.35;100.00;99851.69;4989351;28;20038;-67
2021/12/03 01:14:20;;;;;;;0.70;0.70;;;;;;;2.41;100.00;99855.72;4992432;28;20049;-68
2021/12/03 01:16:49;;;;;;;1.90;0.88;;;;;;;2.36;100.00;99843.38;4983425;28;20027;-66
2021/12/03 01:19:15;;;;;;;0.77;0.70;;;;;;;2.49;100.00;99844.28;4981071;28;20041;-67
2021/12/03 01:21:40;;;;;;;0.77;0.70;;;;;;;2.55;100.00;99840.34;4988375;28;20118;-66
2021/12/03 01:24:06;;;;;;;1.40;1.02;;;;;;;2.52;100.00;99830.34;4982907;28;20384;-67
2021/12/03 01:26:34;;;;;;;1.38;0.60;;;;;;;2.59;100.00;99844.66;4975529;28;20035;-66
2021/12/03 01:28:59;;;;;;;2.78;1.00;;;;;;;2.57;100.00;99832.81;4973664;28;20772;-67
2021/12/03 01:31:25;;;;;;;2.40;0.98;;;;;;;2.58;100.00;99824.53;4989673;28;20050;-66
2021/12/03 01:33:51;;;;;;;0.50;0.50;;;;;;;2.44;100.00;99845.22;4972948;28;20141;-67
2021/12/03 01:36:16;;;;;;;3.35;0.75;;;;;;;2.53;100.00;99843.31;4986868;28;20092;-66
2021/12/03 01:38:43;;;;;;;1.92;0.57;;;;;;;2.60;100.00;99848.13;4989580;28;20096;-67
2021/12/03 01:41:09;;;;;;;0.52;0.52;;;;;;;2.44;100.00;99850.53;4988554;28;20048;-66
2021/12/03 01:43:35;;;;;;;1.58;0.93;;;;;;;2.39;100.00;99852.59;4977744;28;20122;-67
2021/12/03 01:46:03;;;;;;;1.48;0.98;;;;;;;2.50;100.00;99851.91;4977315;28;20118;-67
2021/12/03 01:48:30;;;;;;;1.20;0.63;;;;;;;2.43;100.00;99853.53;4972863;28;20606;-66
2021/12/03 01:50:56;;;;;;;2.67;0.80;;;;;;;2.51;100.00;99855.38;4977194;28;20502;-67
2021/12/03 01:53:27;;;;;;;0.43;0.35;;;;;;;2.47;100.00;99838.50;4981544;28;20073;-68
2021/12/03 01:56:00;;;;;;;1.05;0.93;;;;;;;2.48;100.00;99850.69;4980078;28;20376;-67
2021/12/03 01:58:25;;;;;;;0.93;0.70;;;;;;;2.40;100.00;99848.88;4979542;28;20466;-66
2021/12/03 02:00:55;;;;;;;1.38;0.57;;;;;;;2.39;100.00;99850.72;4975752;28;20046;-67
2021/12/03 02:03:24;;;;;;;2.17;1.05;;;;;;;2.45;100.00;99856.63;4988737;28;20038;-67
2021/12/03 02:05:51;;;;;;;1.08;0.75;;;;;;;2.35;100.00;99859.66;4974139;28;20034;-66
2021/12/03 02:08:16;;;;;;;2.38;1.13;;;;;;;2.42;100.00;99862.59;4971971;28;20035;-67
2021/12/03 02:10:43;;;;;;;3.83;1.10;;;;;;;2.42;100.00;99870.56;4977222;28;20049;-67
2021/12/03 02:13:11;;;;;;;1.02;0.80;;;;;;;2.41;100.00;99874.31;4983444;28;20435;-67
2021/12/03 02:15:38;;;;;;;1.73;1.10;;;;;;;2.45;100.00;99867.25;4991999;28;20038;-66
2021/12/03 02:18:05;;;;;;;3.35;1.45;;;;;;;2.49;100.00;99852.25;4982977;28;20115;-67
2021/12/03 02:20:31;;;;;;;7.90;1.20;;;;;;;2.51;100.00;99861.47;4972395;28;20037;-66
2021/12/03 02:22:56;;;;;;;2.90;1.00;;;;;;;2.43;100.00;99869.47;4971904;28;20038;-66
2021/12/03 02:25:23;;;;;;;2.55;0.80;;;;;;;2.43;100.00;99858.84;4974606;28;20065;-66
2021/12/03 02:27:55;;;;;;;3.03;1.52;;;;;;;2.47;100.00;99854.44;4983994;28;20039;-66
2021/12/03 02:30:22;;;;;;;3.17;1.33;;;;;;;2.43;100.00;99854.31;4991971;28;20469;-66
2021/12/03 02:32:49;;;;;;;1.75;0.93;;;;;;;2.42;100.00;99857.28;4991521;28;20030;-69
2021/12/03 02:35:17;;;;;;;2.83;1.30;;;;;;;2.35;100.00;99860.44;4981435;28;20042;-69
2021/12/03 02:37:43;;;;;;;2.08;1.33;;;;;;;2.44;100.00;99860.41;4986777;28;20054;-66
2021/12/03 02:40:09;;;;;;;1.67;0.95;;;;;;;2.42;100.00;99859.94;4991332;28;20042;-65
2021/12/03 02:42:35;;;;;;;2.03;1.02;;;;;;;2.38;100.00;99862.44;4991673;28;20065;-66
2021/12/03 02:45:03;;;;;;;1.33;1.20;;;;;;;2.38;100.00;99872.31;4991022;28;20102;-67
2021/12/03 02:47:28;;;;;;;1.70;1.08;;;;;;;2.35;100.00;99873.72;4987046;28;20395;-66
2021/12/03 02:49:57;;;;;;;2.58;1.80;;;;;;;2.32;100.00;99870.94;4989887;28;20109;-66
2021/12/03 02:52:23;;;;;;;1.85;1.40;;;;;;;2.31;100.00;99872.78;4988471;28;20138;-66
2021/12/03 02:54:48;;;;;;;2.67;1.00;;;;;;;2.36;100.00;99872.59;4982618;28;20042;-67
2021/12/03 02:57:15;;;;;;;1.08;0.77;;;;;;;2.36;100.00;99885.13;4991343;28;20034;-66
2021/12/03 02:59:41;;;;;;;4.25;1.40;;;;;;;2.32;100.00;99881.53;4990617;28;20046;-66
2021/12/03 03:02:09;;;;;;;1.75;1.00;;;;;;;2.25;100.00;99895.31;4988568;28;20034;-67
2021/12/03 03:04:35;;;;;;;1.30;1.20;;;;;;;2.32;100.00;99889.50;4990220;28;20487;-67
2021/12/03 03:07:01;;;;;;;2.60;1.55;;;;;;;2.41;100.00;99890.25;4984158;28;20034;-67
2021/12/03 03:09:27;;;;;;;1.85;1.17;;;;;;;2.51;100.00;99892.56;4978147;28;20041;-68
2021/12/03 03:11:53;;;;;;;1.77;1.05;;;;;;;2.45;100.00;99904.47;4983805;28;20495;-66
2021/12/03 03:14:18;;;;;;;2.30;1.10;;;;;;;2.51;100.00;99906.63;4986907;28;20092;-67
2021/12/03 03:16:44;;;;;;;2.90;1.05;;;;;;;2.41;100.00;99914.94;4983530;28;20503;-66
2021/12/03 03:19:15;;;;;;;2.03;1.00;;;;;;;2.49;100.00;99911.47;4979714;28;20065;-66
2021/12/03 03:21:41;;;;;;;1.55;0.95;;;;;;;2.49;100.00;99900.84;4986749;28;20096;-67
2021/12/03 03:24:08;;;;;;;4.80;2.03;;;;;;;2.63;100.00;99900.63;4970265;28;20038;-66
2021/12/03 03:26:39;;;;;;;2.55;1.05;;;;;;;2.72;100.00;99880.09;4979146;28;20442;-66
2021/12/03 03:29:06;;;;;;;1.25;1.08;;;;;;;2.77;100.00;99879.91;4990545;28;20035;-66
2021/12/03 03:31:34;;;;;;;1.77;0.90;;;;;;;2.74;100.00;99884.00;4990550;28;20054;-67
2021/12/03 03:34:00;;;;;;;1.27;1.17;;;;;;;2.76;100.00;99883.66;4990370;28;20077;-66
2021/12/03 03:36:29;;;;;;;3.58;1.40;;;;;;;2.81;100.00;99880.06;4988193;28;20442;-66
2021/12/03 03:38:55;;;;;;;2.60;1.60;;;;;;;2.88;100.00;99872.34;4982822;28;20057;-66
2021/12/03 03:41:22;;;;;;;3.90;1.50;;;;;;;2.83;100.00;99883.19;4990274;28;20023;-66
2021/12/03 03:43:47;;;;;;;4.43;1.77;;;;;;;2.83;100.00;99870.66;4989830;28;20042;-66
2021/12/03 03:46:13;;;;;;;2.55;1.38;;;;;;;2.80;100.00;99881.16;4990512;28;20053;-66
2021/12/03 03:48:38;;;;;;;2.92;2.03;;;;;;;2.83;100.00;99878.63;4990231;28;20042;-66
2021/12/03 03:51:04;;;;;;;2.55;1.15;;;;;;;2.65;100.00;99885.91;4988055;28;20034;-66
2021/12/03 03:53:29;;;;;;;2.20;1.45;;;;;;;2.74;100.00;99880.56;4982083;28;20038;-66
2021/12/03 03:55:55;;;;;;;2.25;1.67;;;;;;;2.79;100.00;99879.59;4988795;28;20038;-68
2021/12/03 03:58:20;;;;;;;4.57;1.80;;;;;;;2.75;100.00;99876.78;4982251;28;20039;-67
2021/12/03 04:00:46;;;;;;;2.72;1.75;;;;;;;2.77;100.00;99865.84;4990229;28;20061;-67
2021/12/03 04:03:12;;;;;;;3.53;1.75;;;;;;;2.75;100.00;99880.22;4990001;28;20038;-66
2021/12/03 04:05:38;;;;;;;2.13;1.73;;;;;;;2.71;100.00;99889.16;4987035;28;20042;-66
2021/12/03 04:08:04;;;;;;;1.13;0.95;;;;;;;2.75;100.00;99898.03;4989979;28;20089;-65
2021/12/03 04:10:33;;;;;;;2.13;1.13;;;;;;;2.77;100.00;99895.84;4977884;28;20042;-66
2021/12/03 04:12:59;;;;;;;1.95;1.33;;;;;;;2.81;100.00;99891.44;4981794;28;20058;-67
2021/12/03 04:15:25;;;;;;;2.80;1.60;;;;;;;2.83;100.00;99883.94;4989846;28;20065;-69
2021/12/03 04:17:50;;;;;;;1.33;1.23;;;;;;;2.81;100.00;99888.78;4993471;28;20430;-66
2021/12/03 04:20:17;;;;;;;1.35;0.98;;;;;;;2.83;100.00;99878.63;4992181;28;20038;-65
2021/12/03 04:22:43;;;;;;;3.42;1.52;;;;;;;2.87;100.00;99879.53;4978794;28;20057;-69
2021/12/03 04:25:12;;;;;;;3.55;2.13;;;;;;;2.82;100.00;99877.06;4986406;28;20038;-66
2021/12/03 04:27:37;;;;;;;1.45;1.35;;;;;;;2.87;100.00;99870.78;4990110;28;20038;-66
2021/12/03 04:30:06;;;;;;;3.40;2.00;;;;;;;2.79;100.00;99855.69;4975112;28;20089;-66
2021/12/03 04:32:31;;;;;;;5.15;1.73;;;;;;;2.80;100.00;99865.19;4988669;28;20038;-67
2021/12/03 04:34:57;;;;;;;3.85;2.13;;;;;;;2.77;100.00;99861.28;4988375;28;20038;-68
2021/12/03 04:37:22;;;;;;;5.68;1.98;;;;;;;2.66;100.00;99866.22;4989900;28;20030;-66
2021/12/03 04:39:48;;;;;;;2.53;1.50;;;;;;;2.67;100.00;99869.66;4989142;28;20030;-66
2021/12/03 04:42:14;;;;;;;3.60;1.90;;;;;;;2.66;100.00;99868.09;4991499;28;20035;-67
2021/12/03 04:44:39;;;;;;;3.05;1.92;;;;;;;2.63;100.00;99866.84;4991378;28;20030;-67
2021/12/03 04:47:05;;;;;;;1.80;1.30;;;;;;;2.51;100.00;99866.00;4991660;28;20506;-66
2021/12/03 04:49:31;;;;;;;3.05;2.30;;;;;;;2.56;100.00;99874.56;4989486;28;20109;-68
2021/12/03 04:51:57;;;;;;;2.17;1.67;;;;;;;2.53;100.00;99877.06;4981162;28;20177;-66
2021/12/03 04:54:26;;;;;;;4.30;2.50;;;;;;;2.52;100.00;99870.97;4972271;28;20117;-66
2021/12/03 04:56:53;;;;;;;2.58;2.25;;;;;;;2.57;100.00;99880.66;4984952;28;20042;-67
2021/12/03 04:59:18;;;;;;;3.70;2.33;;;;;;;2.51;100.00;99881.94;4989960;28;20034;-67
2021/12/03 05:01:44;;;;;;;3.25;1.95;;;;;;;2.49;100.00;99900.06;4982661;28;20483;-67
2021/12/03 05:04:10;;;;;;;4.72;2.13;;;;;;;2.47;100.00;99907.56;4983729;28;20037;-66
2021/12/03 05:09:21;;;;;;;2.45;1.77;;;;;;;2.47;100.00;99904.91;4991133;28;20049;-67
2021/12/03 05:11:47;;;;;;;3.65;1.75;;;;;;;2.54;100.00;99887.38;4982358;28;20137;-67
2021/12/03 05:14:12;;;;;;;4.38;2.28;;;;;;;2.62;100.00;99869.81;4986768;28;20122;-67
2021/12/03 05:16:38;;;;;;;3.40;2.00;;;;;;;2.58;100.00;99880.31;4990302;28;20038;-67
2021/12/03 05:19:04;;;;;;;5.07;2.30;;;;;;;2.63;100.00;99876.72;4979285;28;20112;-66
2021/12/03 05:21:30;;;;;;;3.30;2.10;;;;;;;2.60;100.00;99877.34;4984464;28;20041;-67
2021/12/03 05:23:55;;;;;;;2.40;1.90;;;;;;;2.47;100.00;99875.69;4991852;28;20038;-67
2021/12/03 05:26:22;;;;;;;2.00;1.80;;;;;;;2.45;100.00;99888.53;4991359;28;20046;-67
2021/12/03 05:28:47;;;;;;;3.72;2.70;;;;;;;2.47;100.00;99876.47;4991914;28;20045;-67
2021/12/03 05:31:13;;;;;;;6.40;2.80;;;;;;;2.55;100.00;99877.53;4990661;28;20026;-66
2021/12/03 05:33:38;;;;;;;6.85;2.30;;;;;;;2.48;100.00;99885.22;4990606;28;20034;-67
2021/12/03 05:36:04;;;;;;;5.78;2.90;;;;;;;2.51;100.00;99892.56;4985650;28;20038;-66
2021/12/03 05:38:30;;;;;;;3.92;2.42;;;;;;;2.51;100.00;99895.22;4975988;28;20027;-67
2021/12/03 05:40:55;;;;;;;4.55;2.72;;;;;;;2.55;100.00;99888.16;4989360;28;20049;-67
2021/12/03 05:43:21;;;;;;;3.10;2.28;;;;;;;2.56;100.00;99890.50;4985434;28;20084;-66
2021/12/03 05:45:47;;;;;;;5.00;2.65;;;;;;;2.57;100.00;99883.31;4990977;28;20408;-66
2021/12/03 05:48:13;;;;;;;6.07;2.67;;;;;;;2.58;100.00;99876.88;4984244;28;20149;-67
2021/12/03 05:50:40;;;;;;;8.10;2.72;;;;;;;2.65;100.00;99882.50;4988604;28;20037;-67
2021/12/03 05:53:05;;;;;;;4.10;2.22;;;;;;;2.63;100.00;99887.34;4990926;28;20475;-66
2021/12/03 05:55:33;;;;;;;5.68;2.95;;;;;;;2.61;100.00;99897.50;4990104;28;20037;-65
2021/12/03 05:57:59;;;;;;;3.00;2.60;;;;;;;2.62;100.00;99888.44;4986937;28;20411;-67
2021/12/03 06:00:31;;;;;;;4.30;2.53;;;;;;;2.65;100.00;99885.91;4981776;28;20030;-67
2021/12/03 06:02:57;;;;;;;3.90;2.17;;;;;;;2.60;100.00;99887.97;4986955;28;20496;-67
2021/12/03 06:05:25;;;;;;;3.88;1.98;;;;;;;2.53;100.00;99885.84;4981458;28;20092;-67
2021/12/03 06:07:51;;;;;;;3.53;3.00;;;;;;;2.57;100.00;99886.75;4986792;28;20046;-66
2021/12/03 06:10:17;;;;;;;4.93;2.97;;;;;;;2.55;100.00;99885.50;4989888;28;20338;-66
2021/12/03 06:12:43;;;;;;;3.67;2.53;;;;;;;2.53;100.00;99890.34;4987964;28;20045;-67
2021/12/03 06:15:09;;;;;;;3.47;2.58;;;;;;;2.55;100.00;99896.13;4981917;28;20042;-66
2021/12/03 06:17:34;;;;;;;5.20;2.90;;;;;;;2.64;100.00;99888.88;4984185;28;20121;-67
2021/12/03 06:20:00;;;;;;;6.22;2.58;;;;;;;2.64;100.00;99886.22;4989644;28;20399;-66
2021/12/03 06:22:25;;;;;;;6.68;3.60;;;;;;;2.71;100.00;99881.97;4986286;28;20026;-67
2021/12/03 06:24:51;;;;;;;4.35;3.00;;;;;;;2.66;100.00;99892.78;4983535;28;20030;-66
2021/12/03 06:27:16;;;;;;;4.97;3.20;;;;;;;2.74;100.00;99886.66;4988560;28;20161;-66
2021/12/03 06:29:42;;;;;;;3.88;2.45;;;;;;;2.66;100.00;99882.16;4982492;28;20121;-66
2021/12/03 06:32:10;;;;;;;3.25;2.55;;;;;;;2.69;100.00;99888.72;4986405;28;20038;-65
2021/12/03 06:34:37;;;;;;;4.18;2.53;;;;;;;2.81;100.00;99882.72;4982671;28;20829;-66
2021/12/03 06:37:03;;;;;;;8.90;3.25;;;;;;;2.75;100.00;99885.53;4979227;28;20039;-65
2021/12/03 06:39:28;;;;;;;6.25;3.50;;;;;;;2.72;100.00;99891.50;4971167;28;20038;-66
2021/12/03 06:41:54;;;;;;;3.50;2.58;;;;;;;2.77;100.00;99889.78;4979120;28;20407;-66
2021/12/03 06:44:23;;;;;;;4.28;2.35;;;;;;;2.72;100.00;99893.38;4982824;28;20410;-65
2021/12/03 06:46:51;;;;;;;5.00;2.67;;;;;;;2.75;100.00;99898.03;4980718;28;20078;-66
2021/12/03 06:49:16;;;;;;;4.63;2.70;;;;;;;2.68;100.00;99903.88;4985822;28;20313;-69
2021/12/03 06:51:44;;;;;;;8.15;3.35;;;;;;;2.66;100.00;99900.75;4981428;28;20097;-67
2021/12/03 06:54:10;;;;;;;8.38;3.47;;;;;;;2.77;100.00;99903.06;4990184;28;20038;-66
2021/12/03 06:56:48;;;;;;;5.93;2.65;;;;;;;2.81;100.00;99896.75;4988831;28;20533;-66
2021/12/03 06:59:17;;;;;;;5.30;2.95;;;;;;;2.85;100.00;99903.00;4990167;28;20042;-67
2021/12/03 07:01:43;;;;;;;3.35;2.35;;;;;;;2.77;100.00;99909.13;4977721;28;20030;-66
2021/12/03 07:04:09;;;;;;;6.53;2.72;;;;;;;2.73;100.00;99894.94;4975620;28;20620;-66
2021/12/03 07:06:34;;;;;;;2.80;2.10;;;;;;;2.70;100.00;99906.22;4971254;28;20057;-65
2021/12/03 07:09:00;;;;;;;3.42;2.20;;;;;;;2.78;100.00;99893.97;4977733;28;20072;-66
2021/12/03 07:11:25;;;;;;;9.13;2.40;;;;;;;2.71;100.00;99903.22;4978764;28;20734;-66
2021/12/03 07:13:51;;;;;;;5.35;2.63;;;;;;;2.76;100.00;99899.63;4983645;28;20030;-66
2021/12/03 07:16:16;;;;;;;2.15;1.95;;;;;;;2.76;100.00;99899.63;4977874;28;20072;-67
2021/12/03 07:18:43;;;;;;;3.75;2.22;;;;;;;2.72;100.00;99899.47;4974405;28;20042;-66
2021/12/03 07:21:09;;;;;;;2.85;2.30;;;;;;;2.73;100.00;99897.59;4979287;28;20034;-67
2021/12/03 07:23:35;;;;;;;3.60;2.70;;;;;;;2.88;100.00;99898.94;4981820;28;20399;-66
2021/12/03 07:26:02;;;;;;;2.10;1.50;;;;;;;2.82;100.00;99890.38;4986777;28;20030;-67
2021/12/03 07:28:28;;;;;;;6.57;2.40;;;;;;;2.74;100.00;99896.50;4983741;28;20062;-65
2021/12/03 07:30:54;;;;;;;2.33;1.73;;;;;;;2.77;100.00;99889.78;4981630;28;20066;-65
2021/12/03 07:33:20;;;;;;;3.85;2.20;;;;;;;2.71;100.00;99892.59;4968037;28;20070;-68
2021/12/03 07:35:46;;;;;;;5.03;2.17;;;;;;;2.72;100.00;99894.16;4976363;28;20072;-65
2021/12/03 07:38:15;;;;;;;4.35;2.17;;;;;;;2.83;100.00;99889.25;4982001;28;20074;-66
2021/12/03 07:40:42;;;;;;;2.65;2.22;;;;;;;2.74;100.00;99893.84;4976948;28;20043;-65
2021/12/03 07:43:07;;;;;;;4.55;2.10;;;;;;;2.75;100.00;99900.69;4982742;28;20056;-68
2021/12/03 07:45:33;;;;;;;3.10;2.17;;;;;;;2.73;100.00;99900.25;4979834;28;20042;-67
2021/12/03 07:47:59;;;;;;;4.40;2.08;;;;;;;2.75;100.00;99892.72;4982578;28;20455;-65
2021/12/03 07:50:27;;;;;;;3.47;1.95;;;;;;;2.72;100.00;99888.84;4985106;28;20065;-66
2021/12/03 07:52:53;;;;;;;3.50;2.30;;;;;;;2.71;100.00;99897.91;4986860;28;20045;-65
2021/12/03 07:55:19;;;;;;;4.07;1.73;;;;;;;2.80;100.00;99883.81;4987001;28;20047;-66
2021/12/03 07:57:44;;;;;;;3.20;2.03;;;;;;;2.84;100.00;99885.50;4989212;28;20030;-65
2021/12/03 08:00:11;;;;;;;5.80;1.70;;;;;;;2.75;100.00;99898.84;5001879;23;20101;-66
2021/12/03 08:02:42;;;;;;;3.35;2.15;;;;;;;2.80;100.00;99889.13;5011638;28;20069;-65
2021/12/03 08:05:08;;;;;;;4.35;2.13;;;;;;;2.91;100.00;99888.41;5001312;28;20073;-65
2021/12/03 08:07:34;;;;;;;4.43;2.70;;;;;;;2.88;100.00;99885.63;4999857;28;20037;-66
2021/12/03 08:09:59;;;;;;;3.50;1.70;;;;;;;2.88;100.00;99894.41;5004230;28;20030;-66
2021/12/03 08:12:25;;;;;;;4.10;2.65;;;;;;;2.91;100.00;99892.94;4993973;28;20038;-66
2021/12/03 08:14:50;;;;;;;3.42;2.25;;;;;;;2.91;100.00;99895.59;4992779;28;20042;-65
2021/12/03 08:17:16;;;;;;;3.30;2.13;;;;;;;2.83;100.00;99891.91;4994474;28;21071;-66
2021/12/03 08:19:44;;;;;;;5.13;2.92;;;;;;;2.87;100.00;99900.78;5003775;28;20049;-64
2021/12/03 08:22:09;;;;;;;3.90;2.47;;;;;;;2.90;100.00;99899.38;4998698;28;20037;-65
2021/12/03 08:24:35;;;;;;;3.53;2.03;;;;;;;2.92;100.00;99902.50;5004510;28;20038;-65
2021/12/03 08:27:00;;;;;;;4.70;2.25;;;;;;;2.95;100.00;99902.63;5000130;28;20042;-65
2021/12/03 08:29:27;;;;;;;6.47;2.80;;;;;;;2.93;100.00;99899.50;5003457;28;20065;-65
2021/12/03 08:31:52;;;;;;;5.15;2.95;;;;;;;3.05;100.00;99906.78;5009515;28;20029;-65
2021/12/03 08:34:18;;;;;;;6.97;3.55;;;;;;;2.95;100.00;99910.59;5004960;28;20042;-65
2021/12/03 08:36:44;;;;;;;3.30;2.28;;;;;;;2.96;100.00;99906.06;5003799;28;20137;-65
2021/12/03 08:39:09;;;;;;;9.32;2.42;;;;;;;3.04;100.00;99907.91;5012622;28;20050;-65
2021/12/03 08:41:35;;;;;;;5.47;2.72;;;;;;;3.02;100.00;99918.09;5001685;28;20033;-64
2021/12/03 08:44:02;;;;;;;6.88;3.22;;;;;;;2.92;100.00;99913.91;4999412;28;20479;-65
2021/12/03 08:46:36;;;;;;;4.57;2.50;;;;;;;3.00;100.00;99925.59;5002649;28;20033;-65
2021/12/03 08:49:26;;;;;;;4.03;2.22;;;;;;;3.09;100.00;99927.09;5008206;28;20117;-65
2021/12/03 08:57:11;;;;;;;7.70;2.65;;;;;;;3.25;100.00;99916.69;4999017;28;20034;-65
2021/12/03 08:59:37;;;;;;;11.25;2.75;;;;;;;3.29;100.00;99923.66;5003890;28;20041;-65
2021/12/03 09:02:02;;;;;;;5.22;3.10;;;;;;;3.39;100.00;99917.97;5001767;28;20037;-65
2021/12/03 09:04:28;;;;;;;6.28;2.70;;;;;;;3.40;100.00;99926.72;5004839;28;20046;-65
2021/12/03 09:06:56;;;;;;;5.22;2.95;;;;;;;3.49;100.00;99922.09;4996281;28;20099;-66
2021/12/03 09:09:22;;;;;;;4.13;2.40;;;;;;;3.48;100.00;99926.66;5010472;28;20044;-66
2021/12/03 09:11:47;;;;;;;6.80;3.53;;;;;;;3.52;100.00;99930.22;5012075;28;20034;-66
2021/12/03 09:15:00;;;;;;;7.50;4.60;;;;;;;3.59;100.00;99930.50;5003980;28;20046;-66
2021/12/03 09:20:00;;;;;;;8.52;3.15;;;;;;;3.50;100.00;99924.44;5004641;28;20035;-66
2021/12/03 09:25:35;;;;;;;4.57;2.50;;;;;;;3.54;99.94;99937.91;4942886;29;20059;-65
2021/12/03 09:28:03;;;;;;;7.55;3.22;;;;;;;3.50;100.00;99927.09;4994955;28;20050;-66
2021/12/03 09:30:37;;;;;;;2.92;2.53;;;;;;;3.48;100.00;99923.97;5007276;28;20049;-66
2021/12/03 09:33:06;;;;;;;6.68;3.58;;;;;;;3.62;100.00;99932.50;4997286;28;20383;-66
2021/12/03 09:35:31;;;;;;;4.72;2.60;;;;;;;3.55;99.69;99916.28;5007772;28;20021;-66
2021/12/03 09:37:57;;;;;;;6.95;2.80;;;;;;;3.63;99.67;99928.75;5009717;28;20116;-64
2021/12/03 09:40:26;;;;;;;8.68;4.03;;;;;;;3.68;99.38;99919.75;5005083;28;20698;-65
2021/12/03 09:42:52;;;;;;;9.90;4.38;;;;;;;3.70;98.80;99922.09;4992042;28;20040;-65
2021/12/03 09:45:17;;;;;;;7.10;2.90;;;;;;;3.68;98.84;99923.19;4995744;28;20066;-65
2021/12/03 09:47:44;;;;;;;7.45;3.75;;;;;;;3.64;99.28;99922.28;5001335;28;20454;-66
2021/12/03 09:50:14;;;;;;;8.15;3.50;;;;;;;3.60;99.61;99913.41;4993218;28;20474;-64
2021/12/03 09:55:22;;;;;;;12.20;3.75;;;;;;;3.64;99.68;99914.31;4998158;28;20065;-66
2021/12/03 10:02:59;;;;;;;7.70;3.72;;;;;;;3.65;99.14;99915.09;5005709;28;19913;-65
2021/12/03 10:18:47;;;;;;;8.52;3.47;;;;;;;3.75;99.78;99893.41;4991431;28;20402;-65
2021/12/03 10:21:39;;;;;;;9.57;3.17;;;;;;;3.71;99.73;99883.72;5003201;28;20062;-65
2021/12/03 10:29:24;;;;;;;8.00;3.38;;;;;;;3.79;99.68;99878.34;5001897;28;20041;-65
2021/12/03 10:48:59;;;;;;;7.03;2.35;;;;;;;3.88;99.85;99863.03;4993460;28;20035;-65
2021/12/03 11:02:17;;;;;;;13.38;3.35;;;;;;;4.02;99.93;99842.22;4996191;28;20034;-65
2021/12/03 11:13:47;;;;;;;8.70;4.10;;;;;;;4.07;100.00;99833.22;4995933;28;20057;-64
2021/12/03 11:30:14;;;;;;;9.07;3.45;;;;;;;4.14;100.00;99820.88;4996923;28;20380;-65
2021/12/03 14:51:59;;;;;;;12.73;3.80;;;;;;;4.70;98.58;99563.28;4977873;28;20672;-68
2021/12/03 14:57:11;;;;;;;13.13;3.45;;;;;;;4.56;100.00;99554.91;4976578;28;20033;-67
2021/12/03 14:59:40;;;;;;;6.28;3.47;;;;;;;4.54;100.00;99551.81;4975463;28;20030;-67
2021/12/03 15:07:22;;;;;;;6.28;2.95;;;;;;;4.60;100.00;99539.78;4978130;28;20112;-68
2021/12/03 15:09:49;;;;;;;11.77;3.58;;;;;;;4.57;100.00;99553.78;4977598;28;20054;-68
2021/12/03 15:21:27;;;;;;;9.15;2.25;;;;;;;4.47;100.00;99539.06;4882790;29;20104;-68
2021/12/03 15:31:51;;;;;;;10.20;3.40;;;;;;;4.49;100.00;99520.84;4892154;29;20047;-67
2021/12/03 15:37:15;;;;;;;6.68;3.63;;;;;;;4.43;100.00;99511.53;4903527;29;20047;-67
2021/12/03 15:56:23;;;;;;;10.02;2.42;;;;;;;4.28;100.00;99495.53;4977860;28;20065;-67
2021/12/03 16:04:04;;;;;;;5.15;2.10;;;;;;;4.22;100.00;99475.59;4983211;28;20069;-67
2021/12/03 16:22:44;;;;;;;14.02;3.80;;;;;;;4.19;100.00;99447.75;4979318;28;20061;-67
2021/12/03 16:44:27;;;;;;;6.75;3.30;;;;;;;4.07;100.00;99431.81;4989373;28;20034;-66
2021/12/03 16:46:56;;;;;;;4.30;2.40;;;;;;;4.09;100.00;99440.25;4985798;28;20092;-67
2021/12/03 16:52:07;;;;;;;3.05;1.73;;;;;;;4.20;100.00;99427.22;4984659;28;20042;-67
2021/12/03 16:54:45;;;;;;;6.00;2.10;;;;;;;4.13;100.00;99421.69;4990268;28;20029;-69
2021/12/03 16:57:12;;;;;;;12.55;2.65;;;;;;;4.15;100.00;99408.81;4982613;28;20523;-66
2021/12/03 16:59:41;;;;;;;6.57;2.42;;;;;;;4.17;100.00;99412.69;4976648;28;20049;-68
2021/12/03 17:02:16;;;;;;;4.88;2.50;;;;;;;4.12;100.00;99412.91;4972975;28;20030;-67
2021/12/03 17:12:59;;;;;;;6.38;2.53;;;;;;;4.07;100.00;99404.41;4987035;28;20045;-68
2021/12/03 17:44:29;;;;;;;2.67;1.55;;;;;;;4.20;100.00;99392.59;4977340;28;20128;-66
2021/12/03 17:58:04;;;;;;;5.25;2.22;;;;;;;4.24;100.00;99369.47;4985117;28;20081;-66
2021/12/03 18:00:43;;;;;;;3.85;2.22;;;;;;;4.28;100.00;99375.63;4978957;28;20038;-66
2021/12/03 18:44:00;;;;;;;4.35;2.20;;;;;;;4.40;100.00;99348.91;4988386;28;20035;-66
2021/12/03 18:51:46;;;;;;;3.33;1.73;;;;;;;4.42;100.00;99336.00;4981889;28;20049;-65
2021/12/03 18:56:54;;;;;;;6.93;3.70;;;;;;;4.53;100.00;99321.03;4983039;28;20391;-65
2021/12/03 18:59:25;;;;;;;11.15;4.35;;;;;;;4.51;100.00;99333.94;4984183;28;20030;-65
2021/12/03 19:01:51;;;;;;;8.75;3.97;;;;;;;4.59;100.00;99327.63;4981640;28;20045;-66
2021/12/03 19:04:23;;;;;;;4.72;2.85;;;;;;;4.50;100.00;99332.41;4990042;28;20507;-66
2021/12/03 19:09:26;;;;;;;8.65;4.80;;;;;;;4.51;100.00;99323.25;4972997;28;20435;-67
2021/12/03 19:14:31;;;;;;;10.85;3.88;;;;;;;4.55;100.00;99311.56;4979603;28;20034;-66
2021/12/03 19:16:57;;;;;;;10.82;5.43;;;;;;;4.59;100.00;99315.09;4981658;28;20045;-66
2021/12/03 19:19:22;;;;;;;7.45;3.95;;;;;;;4.63;100.00;99315.16;4986193;28;20141;-66
2021/12/03 19:21:49;;;;;;;5.93;2.85;;;;;;;4.62;100.00;99302.97;4989230;28;20112;-67
2021/12/03 19:24:16;;;;;;;6.90;4.10;;;;;;;4.72;100.00;99294.44;4989147;28;20066;-66
2021/12/03 19:26:43;;;;;;;4.20;2.90;;;;;;;4.66;100.00;99293.16;4988481;28;20045;-66
2021/12/03 19:29:14;;;;;;;10.57;5.30;;;;;;;4.67;100.00;99293.91;4988234;28;20133;-67
2021/12/03 19:31:41;;;;;;;5.50;2.55;;;;;;;4.60;100.00;99297.22;4979646;28;20039;-66
2021/12/03 19:34:07;;;;;;;5.25;2.88;;;;;;;4.63;100.00;99293.84;4968047;28;20522;-67